createdAt,value
2019-03-03T00:01:33.885Z,11.30
2019-03-03T00:04:04.546Z,4.63
2019-03-03T00:06:34.722Z,5.03
2019-03-03T00:09:08.268Z,5.23
2019-03-03T00:11:39.441Z,4.80
2019-03-03T00:14:12.306Z,4.77
2019-03-03T00:16:42.939Z,5.30
2019-03-03T00:19:16.169Z,5.23
2019-03-03T00:21:49.342Z,5.67
2019-03-03T00:24:18.727Z,5.23
2019-03-03T00:26:52.203Z,4.87
2019-03-03T00:29:22.961Z,3.93
2019-03-03T00:31:54.482Z,5.63
2019-03-03T00:34:27.964Z,4.67
2019-03-03T00:38:01.614Z,4.00
2019-03-03T00:40:52.336Z,5.27
2019-03-03T00:43:29.750Z,4.40
2019-03-03T00:46:08.313Z,5.20
2019-03-03T00:48:50.445Z,5.80
2019-03-03T00:51:25.987Z,4.07
2019-03-03T00:56:03.960Z,4.77
2019-03-03T00:58:43.854Z,4.57
2019-03-03T01:01:25.350Z,4.20
2019-03-03T01:04:05.091Z,4.23
2019-03-03T01:07:41.972Z,4.10
2019-03-03T01:10:15.572Z,4.47
2019-03-03T01:12:59.802Z,4.80
2019-03-03T01:15:34.735Z,4.73
2019-03-03T01:18:09.999Z,4.43
2019-03-03T01:20:47.592Z,3.97
2019-03-03T01:24:25.676Z,3.90
2019-03-03T01:26:57.690Z,4.33
2019-03-03T01:29:28.946Z,5.10
2019-03-03T01:31:59.085Z,4.10
2019-03-03T01:34:32.140Z,4.13
2019-03-03T01:37:02.778Z,3.93
2019-03-03T01:39:35.032Z,4.83
2019-03-03T01:42:06.539Z,4.43
2019-03-03T01:44:36.843Z,4.63
2019-03-03T01:47:07.540Z,5.97
2019-03-03T01:49:41.792Z,4.27
2019-03-03T01:52:18.095Z,3.83
2019-03-03T01:54:49.511Z,4.43
2019-03-03T01:57:23.776Z,4.87
2019-03-03T01:59:55.671Z,4.97
2019-03-03T02:02:27.892Z,6.17
2019-03-03T02:05:00.912Z,5.47
2019-03-03T02:07:33.040Z,5.40
2019-03-03T02:10:02.469Z,4.07
2019-03-03T02:12:37.044Z,4.93
2019-03-03T02:15:08.373Z,4.87
2019-03-03T02:17:39.459Z,5.13
2019-03-03T02:20:10.596Z,4.87
2019-03-03T02:22:42.157Z,5.07
2019-03-03T02:25:13.711Z,5.63
2019-03-03T02:27:44.805Z,6.13
2019-03-03T02:30:20.335Z,5.73
2019-03-03T02:32:55.427Z,6.03
2019-03-03T02:35:30.409Z,5.53
2019-03-03T02:38:02.630Z,5.67
2019-03-03T02:40:31.854Z,5.07
2019-03-03T02:43:03.292Z,4.63
2019-03-03T02:45:37.649Z,3.73
2019-03-03T02:48:08.954Z,4.90
2019-03-03T02:50:38.227Z,3.63
2019-03-03T02:53:08.479Z,4.97
2019-03-03T02:55:38.565Z,3.47
2019-03-03T02:58:13.209Z,4.00
2019-03-03T03:00:46.806Z,3.30
2019-03-03T03:03:18.205Z,3.77
2019-03-03T03:06:00.598Z,4.73
2019-03-03T03:11:24.451Z,4.00
2019-03-03T03:14:16.052Z,4.03
2019-03-03T03:16:52.136Z,4.50
2019-03-03T03:19:27.436Z,3.90
2019-03-03T03:24:46.642Z,3.70
2019-03-03T03:27:29.433Z,3.73
2019-03-03T03:30:06.735Z,4.80
2019-03-03T03:32:43.804Z,5.07
2019-03-03T03:35:48.370Z,3.90
2019-03-03T03:41:08.332Z,4.77
2019-03-03T03:44:48.593Z,3.73
2019-03-03T03:47:27.510Z,5.60
2019-03-03T03:50:04.053Z,6.77
2019-03-03T03:52:38.197Z,7.57
2019-03-03T03:55:14.664Z,7.37
2019-03-03T03:57:51.859Z,7.57
2019-03-03T04:00:36.468Z,7.77
2019-03-03T04:05:17.540Z,7.53
2019-03-03T04:08:06.684Z,7.07
2019-03-03T04:10:49.949Z,4.70
2019-03-03T04:13:27.067Z,5.20
2019-03-03T04:16:09.629Z,3.03
2019-03-03T04:19:16.326Z,3.67
2019-03-03T04:21:53.478Z,3.13
2019-03-03T04:25:49.273Z,3.70
2019-03-03T04:28:29.898Z,3.80
2019-03-03T04:31:25.905Z,3.50
2019-03-03T04:34:01.236Z,2.97
2019-03-03T04:36:39.714Z,3.07
2019-03-03T04:39:16.342Z,3.00
2019-03-03T04:43:55.272Z,3.77
2019-03-03T04:46:37.326Z,2.97
2019-03-03T04:49:12.463Z,3.20
2019-03-03T04:51:59.500Z,3.27
2019-03-03T04:54:41.614Z,3.20
2019-03-03T04:57:23.746Z,2.63
2019-03-03T05:00:02.923Z,2.60
2019-03-03T05:02:39.455Z,3.10
2019-03-03T05:05:29.890Z,3.07
2019-03-03T05:08:15.868Z,3.53
2019-03-03T05:10:52.179Z,3.97
2019-03-03T05:13:29.951Z,2.87
2019-03-03T05:16:08.549Z,3.80
2019-03-03T05:19:14.968Z,2.23
2019-03-03T05:21:44.423Z,2.13
2019-03-03T05:24:14.241Z,2.67
2019-03-03T05:26:47.588Z,2.80
2019-03-03T05:29:21.980Z,2.37
2019-03-03T05:31:55.586Z,2.07
2019-03-03T05:34:26.013Z,1.50
2019-03-03T05:36:57.979Z,1.63
2019-03-03T05:39:32.525Z,1.90
2019-03-03T05:42:04.840Z,1.90
2019-03-03T05:44:38.297Z,1.73
2019-03-03T05:47:10.016Z,1.83
2019-03-03T05:49:41.200Z,1.93
2019-03-03T05:52:13.959Z,1.30
2019-03-03T05:54:45.240Z,1.20
2019-03-03T05:57:19.654Z,1.00
2019-03-03T05:59:51.444Z,1.40
2019-03-03T06:02:23.528Z,1.60
2019-03-03T06:04:54.600Z,1.07
2019-03-03T06:07:24.796Z,2.17
2019-03-03T06:09:54.988Z,1.43
2019-03-03T06:12:26.219Z,1.30
2019-03-03T06:14:55.492Z,1.30
2019-03-03T06:17:26.398Z,1.40
2019-03-03T06:19:59.151Z,1.27
2019-03-03T06:22:30.554Z,0.90
2019-03-03T06:25:01.460Z,1.67
2019-03-03T06:27:33.819Z,1.17
2019-03-03T06:30:07.227Z,1.10
2019-03-03T06:32:42.194Z,1.23
2019-03-03T06:35:14.162Z,1.30
2019-03-03T06:37:48.561Z,0.90
2019-03-03T06:40:20.765Z,1.07
2019-03-03T06:42:53.078Z,1.10
2019-03-03T06:45:27.478Z,1.30
2019-03-03T06:47:58.590Z,1.10
2019-03-03T06:50:28.769Z,1.03
2019-03-03T06:53:06.501Z,1.40
2019-03-03T06:55:42.525Z,0.90
2019-03-03T06:58:16.526Z,0.60
2019-03-03T07:00:50.813Z,0.70
2019-03-03T07:03:23.577Z,0.63
2019-03-03T07:05:53.089Z,1.13
2019-03-03T07:08:24.771Z,0.67
2019-03-03T07:10:56.560Z,1.13
2019-03-03T07:13:26.780Z,1.00
2019-03-03T07:15:57.282Z,0.60
2019-03-03T07:18:27.631Z,0.90
2019-03-03T07:23:39.194Z,0.70
2019-03-03T07:26:08.599Z,0.60
2019-03-03T07:28:38.676Z,0.70
2019-03-03T07:31:16.748Z,0.60
2019-03-03T07:33:52.864Z,0.80
2019-03-03T07:36:31.462Z,2.47
2019-03-03T07:39:00.885Z,2.83
2019-03-03T07:41:35.767Z,3.23
2019-03-03T07:44:08.122Z,1.90
2019-03-03T07:46:45.555Z,2.53
2019-03-03T07:49:21.328Z,2.80
2019-03-03T07:51:51.340Z,2.50
2019-03-03T07:54:27.564Z,3.07
2019-03-03T07:56:59.614Z,3.40
2019-03-03T07:59:29.236Z,2.97
2019-03-03T08:02:00.658Z,3.60
2019-03-03T08:04:37.096Z,3.60
2019-03-03T08:07:08.870Z,5.27
2019-03-03T08:09:38.934Z,5.97
2019-03-03T08:12:10.885Z,8.00
2019-03-03T08:14:51.121Z,6.63
2019-03-03T08:17:29.765Z,5.83
2019-03-03T08:20:06.445Z,6.77
2019-03-03T08:22:43.118Z,8.17
2019-03-03T08:25:23.162Z,9.03
2019-03-03T08:27:55.000Z,8.53
2019-03-03T08:30:28.060Z,8.73
2019-03-03T08:33:01.136Z,7.80
2019-03-03T08:35:36.596Z,7.80
2019-03-03T08:38:07.007Z,6.13
2019-03-03T08:40:36.905Z,7.00
2019-03-03T08:43:10.690Z,7.80
2019-03-03T08:47:02.897Z,7.03
2019-03-03T08:49:42.499Z,7.30
2019-03-03T08:52:25.926Z,8.17
2019-03-03T08:56:09.173Z,7.17
2019-03-03T08:59:46.188Z,8.97
2019-03-03T09:02:22.367Z,8.57
2019-03-03T09:05:01.292Z,9.83
2019-03-03T09:08:07.503Z,9.27
2019-03-03T09:12:55.762Z,7.47
2019-03-03T09:19:51.143Z,7.97
2019-03-03T09:22:26.724Z,10.50
2019-03-03T09:25:03.692Z,9.00
2019-03-03T09:27:42.757Z,7.93
2019-03-03T09:30:27.145Z,8.93
2019-03-03T09:35:07.591Z,8.20
2019-03-03T09:37:42.606Z,8.47
2019-03-03T09:40:20.320Z,7.53
2019-03-03T09:43:02.651Z,7.80
2019-03-03T09:46:11.363Z,7.03
2019-03-03T09:48:51.843Z,6.83
2019-03-03T09:52:26.765Z,5.13
2019-03-03T09:55:13.799Z,4.37
2019-03-03T09:58:24.247Z,4.13
2019-03-03T10:01:04.345Z,4.10
2019-03-03T10:03:47.405Z,5.47
2019-03-03T10:06:42.685Z,2.97
2019-03-03T10:10:18.897Z,3.10
2019-03-03T10:12:55.489Z,2.60
2019-03-03T10:15:30.603Z,2.77
2019-03-03T10:18:38.500Z,4.10
2019-03-03T10:21:18.589Z,3.73
2019-03-03T10:23:53.197Z,2.93
2019-03-03T10:28:33.393Z,3.20
2019-03-03T10:31:09.796Z,2.77
2019-03-03T10:33:48.870Z,2.60
2019-03-03T10:36:26.103Z,2.97
2019-03-03T10:39:08.151Z,3.00
2019-03-03T10:41:44.162Z,3.67
2019-03-03T10:44:22.929Z,2.30
2019-03-03T10:47:59.824Z,3.27
2019-03-03T10:51:07.104Z,2.63
2019-03-03T10:53:48.222Z,3.13
2019-03-03T10:56:44.305Z,2.90
2019-03-03T10:59:26.263Z,2.87
2019-03-03T11:03:08.737Z,3.40
2019-03-03T11:05:44.092Z,2.90
2019-03-03T11:09:24.422Z,2.27
2019-03-03T11:11:58.912Z,3.43
2019-03-03T11:16:39.389Z,3.43
2019-03-03T11:19:15.074Z,3.20
2019-03-03T11:21:50.457Z,3.87
2019-03-03T11:24:29.052Z,3.87
2019-03-03T11:27:05.063Z,3.87
2019-03-03T11:29:52.743Z,3.80
2019-03-03T11:32:36.545Z,4.57
2019-03-03T11:37:58.149Z,4.13
2019-03-03T11:40:35.463Z,4.13
2019-03-03T11:43:13.904Z,3.43
2019-03-03T11:45:49.026Z,4.13
2019-03-03T11:48:24.679Z,3.63
2019-03-03T11:51:06.967Z,5.03
2019-03-03T11:54:00.249Z,4.33
2019-03-03T11:56:35.892Z,6.20
2019-03-03T12:03:29.695Z,5.67
2019-03-03T12:06:25.202Z,4.83
2019-03-03T12:09:20.483Z,5.13
2019-03-03T12:11:57.478Z,4.57
2019-03-03T12:14:40.970Z,4.03
2019-03-03T12:17:17.718Z,3.40
2019-03-03T12:19:52.447Z,4.00
2019-03-03T12:22:28.802Z,3.83
2019-03-03T12:25:07.412Z,3.10
2019-03-03T12:27:54.398Z,2.93
2019-03-03T12:30:36.365Z,2.97
2019-03-03T12:33:17.641Z,2.53
2019-03-03T12:35:52.539Z,3.23
2019-03-03T12:38:33.053Z,2.17
2019-03-03T12:41:24.694Z,2.53
2019-03-03T12:44:06.212Z,2.83
2019-03-03T12:46:41.929Z,1.87
2019-03-03T12:49:25.411Z,4.67
2019-03-03T12:52:05.267Z,2.33
2019-03-03T12:54:44.653Z,2.20
2019-03-03T12:57:26.231Z,1.60
2019-03-03T13:00:06.230Z,1.03
2019-03-03T13:04:45.859Z,1.83
2019-03-03T13:08:22.219Z,1.33
2019-03-03T13:11:57.421Z,1.97
2019-03-03T13:17:25.509Z,1.00
2019-03-03T13:22:10.414Z,1.00
2019-03-03T13:29:33.363Z,0.60
2019-03-03T13:33:09.392Z,0.60
2019-03-03T13:36:00.409Z,0.50
2019-03-03T13:38:41.979Z,0.40
2019-03-03T13:42:27.869Z,0.47
2019-03-03T13:45:06.185Z,0.50
2019-03-03T13:47:39.838Z,0.30
2019-03-03T13:50:13.386Z,0.40
2019-03-03T13:52:47.390Z,0.60
2019-03-03T13:55:18.055Z,0.70
2019-03-03T13:57:55.840Z,0.40
2019-03-03T14:03:02.305Z,1.13
2019-03-03T14:05:33.028Z,1.43
2019-03-03T14:08:04.190Z,1.50
2019-03-03T14:10:38.624Z,1.93
2019-03-03T14:13:08.808Z,1.60
2019-03-03T14:15:38.513Z,2.70
2019-03-03T14:18:14.625Z,2.77
2019-03-03T14:20:44.695Z,3.53
2019-03-03T14:23:15.263Z,2.53
2019-03-03T14:25:51.910Z,4.87
2019-03-03T14:28:21.591Z,2.87
2019-03-03T14:30:54.140Z,2.90
2019-03-03T14:33:28.053Z,3.57
2019-03-03T14:35:58.685Z,3.23
2019-03-03T14:38:31.455Z,3.90
2019-03-03T14:41:02.936Z,3.73
2019-03-03T14:43:33.752Z,4.00
2019-03-03T14:46:11.933Z,4.40
2019-03-03T14:48:43.972Z,6.57
2019-03-03T14:51:20.273Z,6.07
2019-03-03T14:53:50.805Z,7.37
2019-03-03T14:56:21.293Z,7.67
2019-03-03T14:58:53.156Z,7.00
2019-03-03T15:01:22.439Z,8.60
2019-03-03T15:03:54.273Z,6.13
2019-03-03T15:06:24.671Z,7.53
2019-03-03T15:09:05.083Z,7.83
2019-03-03T15:11:43.431Z,8.27
2019-03-03T15:14:14.334Z,9.00
2019-03-03T15:16:44.736Z,6.30
2019-03-03T15:19:14.718Z,5.00
2019-03-03T15:21:44.603Z,7.43
2019-03-03T15:24:15.013Z,7.33
2019-03-03T15:26:54.305Z,7.07
2019-03-03T15:29:25.633Z,6.67
2019-03-03T15:31:56.257Z,6.73
2019-03-03T15:34:25.368Z,8.13
2019-03-03T15:36:55.947Z,6.17
2019-03-03T15:39:25.387Z,5.33
2019-03-03T15:41:57.922Z,5.97
2019-03-03T15:44:33.309Z,6.73
2019-03-03T15:47:06.581Z,7.70
2019-03-03T15:49:37.295Z,9.00
2019-03-03T15:52:12.689Z,5.80
2019-03-03T15:54:44.534Z,4.93
2019-03-03T15:57:19.165Z,5.20
2019-03-03T15:59:55.732Z,4.47
2019-03-03T16:02:26.664Z,4.97
2019-03-03T16:05:00.575Z,4.10
2019-03-03T16:07:35.989Z,4.37
2019-03-03T16:10:06.359Z,4.73
2019-03-03T16:12:38.974Z,3.57
2019-03-03T16:15:11.497Z,5.00
2019-03-03T16:17:42.877Z,2.97
2019-03-03T16:20:19.105Z,4.70
2019-03-03T16:22:53.072Z,4.07
2019-03-03T16:25:25.268Z,3.50
2019-03-03T16:28:00.562Z,4.20
2019-03-03T16:30:34.381Z,4.83
2019-03-03T16:33:07.280Z,4.33
2019-03-03T16:35:45.119Z,4.30
2019-03-03T16:38:16.997Z,6.17
2019-03-03T16:40:47.277Z,6.90
2019-03-03T16:43:17.472Z,5.23
2019-03-03T16:45:50.963Z,2.73
2019-03-03T16:48:21.129Z,4.17
2019-03-03T16:50:55.295Z,3.13
2019-03-03T16:53:25.669Z,3.43
2019-03-03T16:56:00.827Z,4.27
2019-03-03T16:58:33.754Z,3.30
2019-03-03T17:01:02.923Z,4.83
2019-03-03T17:03:32.980Z,3.13
2019-03-03T17:06:06.368Z,3.73
2019-03-03T17:11:24.455Z,4.63
2019-03-03T17:13:56.086Z,3.80
2019-03-03T17:16:28.319Z,4.53
2019-03-03T17:19:00.616Z,4.20
2019-03-03T17:21:31.332Z,3.07
2019-03-03T17:24:05.671Z,3.20
2019-03-03T17:29:14.111Z,3.50
2019-03-03T17:31:45.355Z,3.13
2019-03-03T17:34:15.939Z,4.50
2019-03-03T17:36:46.981Z,4.40
2019-03-03T17:39:17.665Z,5.00
2019-03-03T17:41:46.684Z,4.97
2019-03-03T17:44:21.787Z,3.50
2019-03-03T17:46:55.941Z,3.77
2019-03-03T17:49:31.262Z,1.87
2019-03-03T17:52:01.789Z,3.80
2019-03-03T17:54:34.355Z,3.70
2019-03-03T17:57:08.126Z,3.37
2019-03-03T17:59:44.211Z,3.57
2019-03-03T18:02:16.838Z,2.77
2019-03-03T18:04:49.891Z,1.80
2019-03-03T18:07:19.979Z,2.07
2019-03-03T18:09:50.507Z,2.77
2019-03-03T18:12:20.030Z,3.20
2019-03-03T18:14:56.351Z,2.97
2019-03-03T18:17:26.224Z,2.90
2019-03-03T18:19:58.237Z,2.57
2019-03-03T18:22:30.269Z,2.80
2019-03-03T18:25:02.811Z,2.83
2019-03-03T18:27:36.131Z,3.97
2019-03-03T18:30:10.046Z,3.37
2019-03-03T18:32:49.154Z,3.97
2019-03-03T18:35:20.102Z,3.63
2019-03-03T18:37:52.513Z,2.73
2019-03-03T18:40:28.383Z,3.43
2019-03-03T18:43:08.451Z,2.60
2019-03-03T18:45:45.293Z,2.70
2019-03-03T18:48:18.593Z,3.63
2019-03-03T18:50:53.618Z,5.27
2019-03-03T18:53:25.875Z,3.20
2019-03-03T18:55:55.408Z,2.37
2019-03-03T18:58:26.197Z,3.37
2019-03-03T19:01:01.527Z,2.77
2019-03-03T19:03:31.297Z,3.83
2019-03-03T19:06:06.453Z,3.30
2019-03-03T19:11:18.968Z,3.80
2019-03-03T19:13:54.633Z,4.03
2019-03-03T19:16:32.763Z,2.97
2019-03-03T19:19:03.517Z,3.20
2019-03-03T19:21:34.029Z,3.10
2019-03-03T19:24:07.786Z,3.00
2019-03-03T19:26:39.894Z,2.63
2019-03-03T19:29:16.020Z,3.27
2019-03-03T19:31:52.202Z,3.07
2019-03-03T19:34:29.418Z,17.67
2019-03-03T19:36:59.745Z,3.77
2019-03-03T19:39:37.222Z,3.63
2019-03-03T19:42:11.273Z,3.83
2019-03-03T19:44:47.039Z,5.73
2019-03-03T19:47:17.737Z,3.23
2019-03-03T19:49:47.926Z,3.70
2019-03-03T19:52:24.427Z,3.40
2019-03-03T19:55:02.485Z,3.57
2019-03-03T19:57:34.731Z,4.10
2019-03-03T20:00:05.415Z,2.67
2019-03-03T20:02:41.266Z,3.17
2019-03-03T20:05:13.797Z,2.43
2019-03-03T20:07:48.079Z,2.97
2019-03-03T20:10:26.305Z,3.87
2019-03-03T20:13:03.238Z,2.97
2019-03-03T20:15:37.158Z,3.67
2019-03-03T20:18:10.578Z,2.80
2019-03-03T20:20:44.658Z,2.77
2019-03-03T20:23:16.902Z,2.23
2019-03-03T20:28:26.642Z,3.03
2019-03-03T20:30:59.675Z,2.70
2019-03-03T20:33:32.665Z,3.03
2019-03-03T20:36:06.017Z,2.30
2019-03-03T20:38:39.570Z,1.50
2019-03-03T20:41:14.652Z,1.93
2019-03-03T20:43:48.178Z,3.00
2019-03-03T20:46:30.111Z,3.20
2019-03-03T20:49:07.027Z,3.07
2019-03-03T20:51:40.816Z,2.63
2019-03-03T20:54:18.594Z,3.57
2019-03-03T20:56:48.827Z,2.23
2019-03-03T20:59:24.294Z,2.30
2019-03-03T21:01:57.245Z,1.70
2019-03-03T21:04:28.759Z,1.20
2019-03-03T21:07:06.417Z,1.90
2019-03-03T21:09:39.109Z,1.40
2019-03-03T21:12:09.552Z,1.90
2019-03-03T21:14:40.387Z,1.90
2019-03-03T21:17:13.233Z,1.97
2019-03-03T21:19:45.581Z,1.63
2019-03-03T21:22:18.787Z,1.20
2019-03-03T21:24:51.078Z,1.17
2019-03-03T21:27:22.781Z,1.30
2019-03-03T21:29:53.501Z,1.87
2019-03-03T21:32:24.034Z,1.40
2019-03-03T21:34:56.432Z,1.20
2019-03-03T21:37:29.518Z,0.70
2019-03-03T21:40:00.794Z,1.20
2019-03-03T21:42:36.459Z,0.80
2019-03-03T21:45:09.941Z,0.63
2019-03-03T21:47:49.009Z,0.30
2019-03-03T21:50:24.043Z,0.80
2019-03-03T21:53:01.496Z,0.40
2019-03-03T21:55:31.794Z,0.40
2019-03-03T21:58:02.285Z,0.70
2019-03-03T22:00:39.370Z,0.87
2019-03-03T22:03:12.567Z,0.70
2019-03-03T22:05:44.139Z,0.70
2019-03-03T22:08:24.672Z,0.43
2019-03-03T22:10:59.145Z,0.43
2019-03-03T22:13:30.576Z,0.83
2019-03-03T22:16:01.805Z,0.70
2019-03-03T22:18:32.922Z,1.00
2019-03-03T22:21:03.874Z,0.60
2019-03-03T22:23:34.420Z,0.83
2019-03-03T22:26:09.897Z,0.97
2019-03-03T22:28:39.590Z,0.90
2019-03-03T22:31:09.625Z,0.90
2019-03-03T22:33:42.599Z,1.03
2019-03-03T22:36:13.316Z,0.83
2019-03-03T22:38:47.444Z,0.60
2019-03-03T22:44:39.121Z,0.80
2019-03-03T22:47:13.303Z,0.60
2019-03-03T22:49:53.975Z,0.80
2019-03-03T22:52:30.096Z,1.20
2019-03-03T22:55:00.917Z,0.50
2019-03-03T22:57:37.730Z,0.87
2019-03-03T23:00:18.418Z,0.53
2019-03-03T23:02:50.037Z,0.53
2019-03-03T23:05:30.247Z,0.60
2019-03-03T23:08:11.549Z,0.63
2019-03-03T23:10:52.009Z,0.60
2019-03-03T23:13:35.033Z,0.40
2019-03-03T23:16:20.550Z,0.57
2019-03-03T23:19:20.982Z,0.30
2019-03-03T23:24:04.670Z,0.60
2019-03-03T23:26:35.947Z,0.30
2019-03-03T23:29:12.207Z,0.30
2019-03-03T23:31:49.189Z,0.20
2019-03-03T23:34:22.577Z,0.40
2019-03-03T23:36:53.144Z,0.83
2019-03-03T23:39:25.314Z,0.57
2019-03-03T23:41:58.811Z,0.60
2019-03-03T23:44:31.098Z,0.37
2019-03-03T23:47:02.173Z,0.40
2019-03-03T23:49:32.955Z,0.80
2019-03-03T23:52:05.047Z,0.47
2019-03-03T23:54:39.968Z,0.53
2019-03-03T23:57:09.188Z,0.77
2019-03-03T23:59:40.974Z,0.67
